Time;durP1;ratioP1;P1;durP2;ratioP2;P2;SDS_P1;SDS_P2;PMS_P1;PMS_P2;Temp;Humidity;BMP_temperature;BMP_pressure;BME280_temperature;BME280_humidity;BME280_pressure;Samples;Min_cycle;Max_cycle;Signal;HPM_P1;HPM_P2
2024/01/12 00:00:32;;;;;;;45.83;25.53;;;2.10;91.60;;;;;;5024704;28;20045;-79
2024/01/12 00:02:58;;;;;;;43.60;25.20;;;2.10;91.60;;;;;;5016038;28;20026;-79
2024/01/12 00:05:24;;;;;;;42.97;25.07;;;2.10;91.60;;;;;;5007918;28;20449;-79
2024/01/12 00:07:49;;;;;;;43.27;24.77;;;2.10;91.60;;;;;;5020549;28;20101;-80
2024/01/12 00:10:15;;;;;;;47.00;27.23;;;2.10;91.60;;;;;;5019978;28;20033;-79
2024/01/12 00:12:41;;;;;;;41.90;24.10;;;2.10;91.60;;;;;;5023546;28;20124;-80
2024/01/12 00:15:06;;;;;;;42.80;24.60;;;2.20;91.70;;;;;;5004243;28;20060;-81
2024/01/12 00:17:32;;;;;;;37.63;21.83;;;2.20;91.70;;;;;;5011362;28;20072;-81
2024/01/12 00:19:58;;;;;;;32.53;19.87;;;2.20;91.70;;;;;;5024374;28;20069;-80
2024/01/12 00:22:24;;;;;;;30.40;19.33;;;2.20;91.70;;;;;;5001052;28;22681;-81
2024/01/12 00:24:50;;;;;;;33.47;20.20;;;2.20;91.70;;;;;;5022596;28;20029;-81
2024/01/12 00:27:15;;;;;;;28.20;17.53;;;2.20;91.70;;;;;;5021053;28;20037;-79
2024/01/12 00:29:41;;;;;;;30.77;17.30;;;2.20;91.70;;;;;;5022059;28;20396;-79
2024/01/12 00:32:07;;;;;;;25.93;15.10;;;2.20;91.70;;;;;;5018438;28;20033;-81
2024/01/12 00:34:33;;;;;;;23.43;14.60;;;2.20;91.70;;;;;;5001998;28;20068;-80
2024/01/12 00:36:59;;;;;;;24.87;12.50;;;2.20;91.70;;;;;;4999481;28;20037;-79
2024/01/12 00:39:25;;;;;;;27.47;12.47;;;2.20;91.70;;;;;;5019758;28;20038;-79
2024/01/12 00:41:52;;;;;;;26.43;12.07;;;2.20;91.70;;;;;;5022709;28;20120;-79
2024/01/12 00:44:18;;;;;;;18.50;11.17;;;2.20;91.70;;;;;;5021158;28;20586;-79
2024/01/12 00:46:50;;;;;;;22.40;10.83;;;2.20;91.70;;;;;;5021892;28;20102;-80
2024/01/12 00:49:17;;;;;;;21.70;10.87;;;2.30;91.70;;;;;;5015603;28;20534;-79
2024/01/12 00:51:44;;;;;;;23.80;11.33;;;2.30;91.70;;;;;;5014828;28;20049;-79
2024/01/12 00:54:09;;;;;;;20.07;10.43;;;2.30;91.70;;;;;;5020541;28;20045;-79
2024/01/12 00:56:35;;;;;;;24.57;10.73;;;2.30;91.70;;;;;;5023769;28;20054;-79
2024/01/12 00:59:01;;;;;;;22.20;9.67;;;2.30;91.70;;;;;;5021270;28;20030;-79
2024/01/12 01:01:26;;;;;;;27.47;10.13;;;2.30;91.70;;;;;;5022055;28;20568;-79
2024/01/12 01:03:52;;;;;;;16.07;10.00;;;2.30;91.70;;;;;;5024365;28;20078;-79
2024/01/12 01:06:17;;;;;;;21.57;9.73;;;2.30;91.70;;;;;;5019313;28;20408;-79
2024/01/12 01:08:43;;;;;;;20.13;8.50;;;2.30;91.70;;;;;;5021683;28;20054;-80
2024/01/12 01:11:09;;;;;;;19.60;8.43;;;2.30;91.70;;;;;;5023408;28;20044;-80
2024/01/12 01:13:36;;;;;;;14.90;7.80;;;2.30;91.70;;;;;;5023664;28;20034;-80
2024/01/12 01:16:02;;;;;;;17.17;7.40;;;2.40;91.70;;;;;;5027937;28;20053;-80
2024/01/12 01:18:30;;;;;;;16.77;7.50;;;2.30;91.70;;;;;;5028304;28;20034;-79
2024/01/12 01:20:57;;;;;;;13.90;5.50;;;2.30;91.70;;;;;;5023562;28;20041;-79
2024/01/12 01:23:23;;;;;;;13.73;5.20;;;2.30;91.70;;;;;;5017524;28;20037;-80
2024/01/12 01:25:49;;;;;;;15.87;4.97;;;2.30;91.70;;;;;;5008827;28;20048;-80
2024/01/12 01:28:14;;;;;;;13.70;6.47;;;2.40;91.80;;;;;;5023303;28;20091;-80
2024/01/12 01:30:40;;;;;;;17.90;5.10;;;2.40;92.00;;;;;;5023232;28;20038;-80
2024/01/12 01:33:06;;;;;;;14.87;4.47;;;2.40;91.80;;;;;;5025939;28;20042;-80
2024/01/12 01:35:32;;;;;;;13.90;4.87;;;2.40;91.80;;;;;;5023289;28;20053;-80
2024/01/12 01:37:57;;;;;;;17.27;5.07;;;2.40;91.80;;;;;;5025174;28;20045;-80
2024/01/12 01:40:23;;;;;;;15.97;5.23;;;2.40;91.80;;;;;;5021306;28;20046;-80
2024/01/12 01:42:49;;;;;;;10.90;4.53;;;2.40;91.80;;;;;;5022589;28;20053;-79
2024/01/12 01:45:15;;;;;;;17.27;4.70;;;2.40;91.80;;;;;;5025861;28;20049;-79
2024/01/12 01:47:45;;;;;;;10.00;4.30;;;2.50;91.80;;;;;;5006523;28;20113;-79
2024/01/12 01:50:12;;;;;;;13.87;5.27;;;2.50;91.80;;;;;;5023287;28;20076;-79
2024/01/12 01:52:39;;;;;;;8.40;3.80;;;2.50;91.80;;;;;;5025372;28;20076;-79
2024/01/12 01:55:05;;;;;;;10.40;4.57;;;2.50;91.80;;;;;;5025798;28;20445;-79
2024/01/12 01:57:31;;;;;;;12.93;3.97;;;2.50;91.80;;;;;;5026203;28;20038;-79
2024/01/12 01:59:57;;;;;;;20.80;4.03;;;2.50;91.80;;;;;;5023579;28;20044;-79
2024/01/12 02:02:23;;;;;;;12.00;3.53;;;2.50;91.80;;;;;;5031301;28;20045;-80
2024/01/12 02:04:51;;;;;;;11.53;3.13;;;2.50;91.80;;;;;;5030687;28;20065;-80
2024/01/12 02:07:17;;;;;;;10.73;3.30;;;2.60;91.80;;;;;;5027114;28;20116;-80
2024/01/12 02:09:43;;;;;;;11.73;3.47;;;2.50;91.80;;;;;;5024914;28;20104;-80
2024/01/12 02:12:09;;;;;;;13.03;3.67;;;2.60;91.80;;;;;;5025796;28;20038;-79
2024/01/12 02:14:35;;;;;;;12.00;3.00;;;2.60;91.80;;;;;;5023004;28;20052;-80
2024/01/12 02:17:01;;;;;;;12.20;4.30;;;2.60;91.80;;;;;;5025673;28;20133;-80
2024/01/12 02:19:26;;;;;;;11.82;3.08;;;2.60;91.80;;;;;;5025567;28;20588;-80
2024/01/12 02:21:52;;;;;;;11.47;3.67;;;2.60;91.80;;;;;;5023579;28;20112;-79
2024/01/12 02:24:17;;;;;;;13.47;3.93;;;2.60;91.80;;;;;;5026513;28;20034;-79
2024/01/12 02:26:43;;;;;;;14.43;3.83;;;2.60;91.80;;;;;;5023164;28;20039;-79
2024/01/12 02:29:08;;;;;;;11.03;3.80;;;2.60;91.80;;;;;;5026665;28;20045;-79
2024/01/12 02:31:34;;;;;;;14.70;3.53;;;2.60;91.80;;;;;;5031234;28;20555;-79
2024/01/12 02:34:00;;;;;;;9.40;3.13;;;2.60;91.80;;;;;;5028048;28;20053;-79
2024/01/12 02:36:26;;;;;;;10.97;3.80;;;2.60;91.80;;;;;;5023551;28;20051;-80
2024/01/12 02:38:54;;;;;;;14.27;3.60;;;2.60;91.80;;;;;;5021366;28;20037;-80
2024/01/12 02:41:20;;;;;;;9.90;3.60;;;2.60;91.80;;;;;;5018795;28;20072;-80
2024/01/12 02:43:46;;;;;;;10.80;3.40;;;2.70;91.80;;;;;;4995655;28;20065;-79
2024/01/12 02:46:11;;;;;;;11.63;4.80;;;2.70;91.80;;;;;;5020710;28;20503;-79
2024/01/12 02:48:37;;;;;;;13.93;4.65;;;2.60;91.70;;;;;;5007551;28;20395;-79
2024/01/12 02:51:02;;;;;;;11.15;4.65;;;2.70;91.70;;;;;;5020248;28;20042;-80
2024/01/12 02:53:28;;;;;;;13.85;4.22;;;2.70;91.70;;;;;;5002377;28;20052;-80
2024/01/12 02:55:54;;;;;;;7.77;3.33;;;2.60;91.70;;;;;;5024768;28;20034;-80
2024/01/12 02:58:19;;;;;;;11.50;3.78;;;2.70;91.70;;;;;;5022619;28;20048;-80
2024/01/12 03:00:45;;;;;;;9.27;3.38;;;2.70;91.60;;;;;;5026933;28;20091;-79
2024/01/12 03:03:11;;;;;;;14.25;3.45;;;2.60;91.60;;;;;;5019650;28;20033;-79
2024/01/12 03:05:36;;;;;;;9.07;2.87;;;2.60;91.60;;;;;;5021674;28;20037;-80
2024/01/12 03:08:02;;;;;;;9.60;3.50;;;2.60;91.60;;;;;;5018739;28;20050;-80
2024/01/12 03:10:27;;;;;;;12.07;3.50;;;2.70;91.60;;;;;;5015407;28;20133;-79
2024/01/12 03:12:53;;;;;;;11.00;3.40;;;2.70;91.60;;;;;;5015302;28;20501;-80
2024/01/12 03:15:19;;;;;;;9.68;3.50;;;2.60;91.50;;;;;;5019160;28;20037;-80
2024/01/12 03:17:44;;;;;;;8.18;4.22;;;2.60;91.50;;;;;;5018303;28;20089;-80
2024/01/12 03:20:10;;;;;;;8.97;3.83;;;2.60;91.50;;;;;;5023488;28;20092;-79
2024/01/12 03:22:36;;;;;;;10.77;3.33;;;2.60;91.50;;;;;;5017562;28;20048;-80
2024/01/12 03:25:01;;;;;;;11.23;3.03;;;2.60;91.50;;;;;;5006035;28;20061;-80
2024/01/12 03:27:27;;;;;;;8.87;3.33;;;2.60;91.50;;;;;;5021280;28;20034;-80
2024/01/12 03:29:53;;;;;;;9.57;3.60;;;2.60;91.40;;;;;;5019471;28;20037;-80
2024/01/12 03:32:20;;;;;;;11.07;4.07;;;2.60;91.40;;;;;;5022179;28;20401;-80
2024/01/12 03:34:46;;;;;;;7.35;3.33;;;2.60;91.40;;;;;;5008241;28;20038;-80
2024/01/12 03:37:12;;;;;;;10.23;3.45;;;2.60;91.40;;;;;;5015948;28;20037;-80
2024/01/12 03:39:38;;;;;;;7.40;3.27;;;2.60;91.30;;;;;;5007854;28;20400;-80
2024/01/12 03:42:04;;;;;;;10.23;3.67;;;2.60;91.30;;;;;;5004905;28;20042;-80
2024/01/12 03:44:29;;;;;;;10.53;3.53;;;2.60;91.30;;;;;;5024623;28;20049;-80
2024/01/12 03:46:55;;;;;;;7.93;3.67;;;2.60;91.30;;;;;;5022717;28;20037;-81
2024/01/12 03:49:22;;;;;;;9.03;3.00;;;2.60;91.30;;;;;;5017530;28;20045;-80
2024/01/12 03:51:53;;;;;;;13.38;3.28;;;2.60;91.30;;;;;;5025764;28;20072;-80
2024/01/12 03:54:25;;;;;;;9.07;3.13;;;2.60;91.30;;;;;;5022349;28;20484;-79
2024/01/12 03:56:51;;;;;;;11.10;3.93;;;2.60;91.30;;;;;;5026032;28;20045;-80
2024/01/12 03:59:16;;;;;;;12.00;3.57;;;2.60;91.20;;;;;;5020531;28;20058;-80
2024/01/12 04:01:43;;;;;;;10.10;3.50;;;2.60;91.20;;;;;;5023668;28;20120;-81
2024/01/12 04:04:09;;;;;;;7.60;3.03;;;2.60;91.20;;;;;;5025164;28;20037;-80
2024/01/12 04:06:35;;;;;;;10.00;3.10;;;2.50;91.20;;;;;;5028547;28;20042;-80
2024/01/12 04:09:00;;;;;;;8.10;3.03;;;2.50;91.10;;;;;;5029193;28;20509;-80
2024/01/12 04:11:26;;;;;;;9.30;3.27;;;2.50;91.10;;;;;;5020619;28;20042;-80
2024/01/12 04:13:52;;;;;;;8.43;3.63;;;2.50;91.10;;;;;;5027080;28;20041;-80
2024/01/12 04:16:18;;;;;;;9.93;3.00;;;2.50;91.10;;;;;;5024382;28;20041;-80
2024/01/12 04:18:44;;;;;;;7.93;3.67;;;2.50;91.10;;;;;;5026245;28;20081;-80
2024/01/12 04:21:09;;;;;;;11.50;3.93;;;2.50;91.10;;;;;;5023551;28;20045;-80
2024/01/12 04:23:35;;;;;;;13.87;4.13;;;2.50;91.20;;;;;;5023579;28;20049;-81
2024/01/12 04:26:00;;;;;;;10.53;4.47;;;2.50;91.10;;;;;;5030146;28;20404;-80
2024/01/12 04:28:26;;;;;;;10.05;3.92;;;2.50;91.20;;;;;;5020438;28;20143;-80
2024/01/12 04:30:52;;;;;;;9.20;3.10;;;2.60;91.20;;;;;;5023394;28;20033;-81
2024/01/12 04:33:17;;;;;;;9.13;3.50;;;2.50;91.20;;;;;;5025104;28;20065;-80
2024/01/12 04:35:43;;;;;;;8.57;3.72;;;2.60;91.40;;;;;;5025689;28;20122;-81
2024/01/12 04:38:10;;;;;;;10.37;3.43;;;2.60;91.30;;;;;;5027030;28;20029;-81
2024/01/12 04:40:35;;;;;;;11.57;4.13;;;2.60;91.30;;;;;;5023466;28;20088;-78
2024/01/12 04:43:03;;;;;;;12.37;4.13;;;2.60;91.30;;;;;;5024276;28;20029;-80
2024/01/12 04:45:28;;;;;;;10.17;4.80;;;2.60;91.30;;;;;;5020859;28;20054;-80
2024/01/12 04:47:54;;;;;;;9.52;3.42;;;2.60;91.30;;;;;;5028709;28;20049;-80
2024/01/12 04:50:20;;;;;;;9.25;3.42;;;2.60;91.30;;;;;;5031111;28;20042;-80
2024/01/12 04:52:45;;;;;;;9.05;3.60;;;2.60;91.30;;;;;;5030066;28;20067;-80
2024/01/12 04:55:11;;;;;;;10.80;3.67;;;2.60;91.30;;;;;;5032712;28;20532;-80
2024/01/12 04:57:36;;;;;;;7.97;3.45;;;2.60;91.30;;;;;;5028027;28;20084;-80
2024/01/12 05:00:03;;;;;;;12.00;4.05;;;2.60;91.30;;;;;;5027839;28;20037;-80
2024/01/12 05:02:28;;;;;;;9.27;3.90;;;2.60;91.30;;;;;;5019314;28;20041;-79
2024/01/12 05:04:54;;;;;;;11.30;4.50;;;2.60;91.40;;;;;;5021029;28;20077;-79
2024/01/12 05:07:19;;;;;;;15.35;4.20;;;2.60;91.30;;;;;;5026170;28;20076;-79
2024/01/12 05:09:45;;;;;;;12.87;4.60;;;2.60;91.30;;;;;;5008548;28;20030;-79
2024/01/12 05:12:11;;;;;;;12.10;4.20;;;2.60;91.30;;;;;;5027032;28;20515;-79
2024/01/12 05:14:36;;;;;;;7.13;3.55;;;2.70;91.40;;;;;;5024230;28;20034;-80
2024/01/12 05:17:02;;;;;;;9.60;3.90;;;2.60;91.50;;;;;;5026667;28;20050;-79
2024/01/12 05:19:27;;;;;;;8.40;4.00;;;2.70;91.40;;;;;;5025787;28;20416;-79
2024/01/12 05:21:53;;;;;;;13.80;4.57;;;2.70;91.40;;;;;;5025430;28;20058;-80
2024/01/12 05:24:19;;;;;;;11.33;4.00;;;2.70;91.40;;;;;;5025552;28;20037;-80
2024/01/12 05:26:44;;;;;;;12.47;4.67;;;2.70;91.30;;;;;;5022691;28;20053;-80
2024/01/12 05:29:12;;;;;;;13.63;5.20;;;2.70;91.30;;;;;;5025013;28;20034;-79
2024/01/12 05:31:38;;;;;;;16.43;5.00;;;2.70;91.30;;;;;;5023732;28;20074;-80
2024/01/12 05:34:03;;;;;;;11.77;4.35;;;2.70;91.30;;;;;;5023363;28;20103;-79
2024/01/12 05:36:29;;;;;;;6.80;3.60;;;2.70;91.20;;;;;;5007549;28;20550;-79
2024/01/12 05:38:54;;;;;;;13.00;4.47;;;2.70;91.20;;;;;;5020294;28;20038;-79
2024/01/12 05:41:20;;;;;;;8.80;4.05;;;2.70;91.20;;;;;;5027695;28;20191;-80
2024/01/12 05:43:46;;;;;;;8.27;4.37;;;2.70;91.20;;;;;;5022197;28;20438;-79
2024/01/12 05:46:11;;;;;;;9.33;3.40;;;2.70;91.20;;;;;;5025782;28;20055;-79
2024/01/12 05:48:37;;;;;;;9.15;4.00;;;2.70;91.20;;;;;;5024976;28;20083;-79
2024/01/12 05:51:03;;;;;;;7.17;3.03;;;2.70;91.20;;;;;;5025947;28;20041;-80
2024/01/12 05:53:28;;;;;;;7.13;3.50;;;2.70;91.10;;;;;;5026282;28;20499;-79
2024/01/12 05:55:54;;;;;;;9.73;4.17;;;2.60;91.10;;;;;;5020980;28;20487;-79
2024/01/12 05:58:20;;;;;;;11.83;4.70;;;2.60;91.10;;;;;;5025547;28;20034;-79
2024/01/12 06:00:47;;;;;;;8.53;4.20;;;2.60;91.10;;;;;;5017295;28;20052;-79
2024/01/12 06:03:13;;;;;;;9.30;3.90;;;2.60;91.00;;;;;;5009144;28;20088;-80
2024/01/12 06:05:39;;;;;;;11.07;4.70;;;2.60;91.00;;;;;;5024524;28;20484;-80
2024/01/12 06:08:05;;;;;;;6.80;3.70;;;2.60;91.00;;;;;;5022969;28;20069;-79
2024/01/12 06:10:31;;;;;;;6.13;3.23;;;2.60;91.00;;;;;;5025368;28;20037;-79
2024/01/12 06:12:56;;;;;;;9.90;3.85;;;2.60;91.00;;;;;;5023622;28;20037;-79
2024/01/12 06:15:22;;;;;;;7.50;4.00;;;2.60;91.00;;;;;;5025157;28;20050;-79
2024/01/12 06:17:48;;;;;;;9.57;4.20;;;2.60;90.90;;;;;;5021144;28;20029;-80
2024/01/12 06:20:14;;;;;;;6.10;3.20;;;2.60;90.90;;;;;;5009647;28;20036;-79
2024/01/12 06:22:40;;;;;;;7.80;3.93;;;2.60;90.90;;;;;;5015656;28;20035;-79
2024/01/12 06:25:06;;;;;;;5.47;3.25;;;2.60;90.90;;;;;;5027282;28;20037;-79
2024/01/12 06:27:31;;;;;;;11.87;4.73;;;2.60;90.90;;;;;;5022954;28;20397;-79
2024/01/12 06:29:57;;;;;;;13.47;4.73;;;2.60;90.90;;;;;;5025908;28;20041;-79
2024/01/12 06:32:22;;;;;;;15.63;5.03;;;2.60;90.90;;;;;;5016820;28;20066;-79
2024/01/12 06:34:48;;;;;;;14.90;4.87;;;2.60;90.90;;;;;;5027409;28;20420;-79
2024/01/12 06:37:14;;;;;;;11.67;4.60;;;2.60;90.90;;;;;;5016727;28;20408;-79
2024/01/12 06:39:39;;;;;;;11.57;4.93;;;2.60;90.90;;;;;;5024480;28;20118;-80
2024/01/12 06:42:05;;;;;;;19.77;4.93;;;2.60;90.90;;;;;;5028739;28;20042;-80
2024/01/12 06:44:31;;;;;;;17.53;5.00;;;2.60;91.00;;;;;;5027537;28;20057;-79
2024/01/12 06:46:56;;;;;;;9.13;5.00;;;2.60;91.00;;;;;;5024941;28;20053;-79
2024/01/12 06:49:22;;;;;;;10.95;5.18;;;2.60;91.00;;;;;;5032144;28;20030;-79
2024/01/12 06:51:47;;;;;;;11.47;5.03;;;2.60;91.00;;;;;;5028021;28;20179;-79
2024/01/12 06:54:13;;;;;;;12.27;5.13;;;2.60;91.10;;;;;;5024364;28;20029;-79
2024/01/12 06:56:39;;;;;;;12.40;5.28;;;2.60;91.10;;;;;;5017517;28;20086;-80
2024/01/12 06:59:05;;;;;;;13.87;4.57;;;2.70;91.10;;;;;;5026982;28;20057;-79
2024/01/12 07:01:31;;;;;;;12.23;5.00;;;2.70;91.20;;;;;;5027210;28;20038;-79
2024/01/12 07:03:57;;;;;;;16.73;5.07;;;2.70;91.20;;;;;;5029550;28;20045;-79
2024/01/12 07:06:22;;;;;;;14.27;6.10;;;2.70;91.20;;;;;;5023940;28;20030;-79
2024/01/12 07:08:48;;;;;;;11.63;4.77;;;2.70;91.20;;;;;;5020691;28;20596;-79
2024/01/12 07:11:14;;;;;;;10.60;4.53;;;2.70;91.20;;;;;;5024687;28;20044;-79
2024/01/12 07:13:39;;;;;;;10.30;4.80;;;2.70;91.20;;;;;;5004673;28;20034;-79
2024/01/12 07:16:05;;;;;;;12.67;5.47;;;2.70;91.30;;;;;;5017067;28;20311;-79
2024/01/12 07:18:31;;;;;;;9.32;4.03;;;2.70;91.30;;;;;;5023230;28;20080;-79
2024/01/12 07:21:02;;;;;;;11.07;5.13;;;2.70;91.30;;;;;;5019983;28;20046;-80
2024/01/12 07:23:31;;;;;;;12.55;4.45;;;2.70;91.30;;;;;;5025311;28;20412;-80
2024/01/12 07:25:57;;;;;;;14.23;6.33;;;2.70;91.30;;;;;;5024175;28;20496;-79
2024/01/12 07:28:24;;;;;;;13.57;5.23;;;2.70;91.30;;;;;;5023035;28;20042;-79
2024/01/12 07:30:54;;;;;;;10.90;5.23;;;2.80;91.30;;;;;;5018071;28;20172;-79
2024/01/12 07:33:21;;;;;;;14.77;5.28;;;2.80;91.30;;;;;;5020597;28;20045;-79
2024/01/12 07:35:46;;;;;;;11.02;4.53;;;2.80;91.40;;;;;;5018911;28;20037;-79
2024/01/12 07:38:12;;;;;;;12.75;4.63;;;2.80;91.30;;;;;;5022847;28;20052;-78
2024/01/12 07:40:38;;;;;;;10.48;4.50;;;2.80;91.40;;;;;;5024661;28;20045;-78
2024/01/12 07:43:04;;;;;;;11.35;4.57;;;2.80;91.40;;;;;;5024221;28;20109;-80
2024/01/12 07:45:30;;;;;;;11.10;5.23;;;2.80;91.40;;;;;;5027614;28;20041;-80
2024/01/12 07:47:55;;;;;;;12.20;4.80;;;2.80;91.40;;;;;;5024581;28;20046;-79
2024/01/12 07:50:21;;;;;;;10.70;4.93;;;2.80;91.30;;;;;;5026056;28;20091;-79
2024/01/12 07:52:47;;;;;;;14.97;5.67;;;2.80;91.30;;;;;;5023116;28;20488;-79
2024/01/12 07:55:12;;;;;;;25.53;11.37;;;2.80;91.30;;;;;;5023585;28;20034;-79
2024/01/12 07:57:38;;;;;;;16.93;5.90;;;2.80;91.40;;;;;;5017300;28;20057;-80
2024/01/12 08:00:05;;;;;;;12.80;5.57;;;2.80;91.40;;;;;;5025184;28;20175;-80
2024/01/12 08:02:31;;;;;;;14.70;5.38;;;2.80;91.40;;;;;;5018916;28;20048;-79
2024/01/12 08:04:56;;;;;;;12.53;5.27;;;2.80;91.40;;;;;;5010717;28;20045;-79
2024/01/12 08:07:22;;;;;;;14.97;4.97;;;2.80;91.40;;;;;;5002312;28;20038;-79
2024/01/12 08:09:47;;;;;;;12.57;4.97;;;2.80;91.40;;;;;;5025598;28;20041;-79
2024/01/12 08:12:13;;;;;;;9.33;5.07;;;2.80;91.40;;;;;;5020212;28;20137;-79
2024/01/12 08:14:38;;;;;;;12.95;5.57;;;2.80;91.40;;;;;;5021171;28;20037;-80
2024/01/12 08:17:04;;;;;;;11.73;5.17;;;2.80;91.40;;;;;;5018575;28;20033;-80
2024/01/12 08:19:30;;;;;;;8.80;4.50;;;2.70;91.40;;;;;;5027662;28;20029;-79
2024/01/12 08:21:56;;;;;;;13.43;5.13;;;2.70;91.40;;;;;;5003111;28;20096;-79
2024/01/12 08:24:21;;;;;;;12.63;5.50;;;2.70;91.40;;;;;;5016023;28;20667;-79
2024/01/12 08:26:47;;;;;;;14.70;5.23;;;2.70;91.40;;;;;;5025051;28;20132;-79
2024/01/12 08:29:13;;;;;;;13.23;4.93;;;2.70;91.40;;;;;;5020452;28;20048;-80
2024/01/12 08:31:38;;;;;;;13.23;4.37;;;2.70;91.50;;;;;;5020983;28;20214;-80
2024/01/12 08:34:04;;;;;;;12.52;4.95;;;2.70;91.50;;;;;;5011260;28;20045;-80
2024/01/12 08:36:30;;;;;;;16.42;4.80;;;2.60;91.50;;;;;;5018718;28;20124;-79
2024/01/12 08:38:55;;;;;;;14.67;5.33;;;2.60;91.50;;;;;;5008022;28;20045;-80
2024/01/12 08:41:21;;;;;;;13.23;4.90;;;2.60;91.50;;;;;;5019119;28;20530;-80
2024/01/12 08:43:46;;;;;;;12.07;4.97;;;2.60;91.60;;;;;;5024396;28;20120;-80
2024/01/12 08:46:12;;;;;;;13.50;4.80;;;2.70;91.60;;;;;;5021062;28;20077;-79
2024/01/12 08:48:37;;;;;;;15.17;5.07;;;2.60;91.60;;;;;;5021512;28;20037;-79
2024/01/12 08:51:03;;;;;;;13.60;4.80;;;2.60;91.70;;;;;;5023179;28;20049;-80
2024/01/12 08:53:29;;;;;;;14.03;4.63;;;2.60;91.70;;;;;;5023100;28;20037;-80
2024/01/12 08:55:54;;;;;;;11.88;4.68;;;2.60;91.70;;;;;;5009329;28;20059;-80
2024/01/12 08:58:21;;;;;;;13.90;4.70;;;2.60;91.80;;;;;;5019882;28;20409;-80
2024/01/12 09:00:46;;;;;;;18.40;5.13;;;2.60;91.80;;;;;;5022002;28;20104;-80
2024/01/12 09:03:12;;;;;;;14.30;4.50;;;2.60;91.80;;;;;;5015331;28;20116;-81
2024/01/12 09:05:37;;;;;;;16.00;5.30;;;2.60;91.80;;;;;;5024610;28;20045;-81
2024/01/12 09:08:03;;;;;;;13.70;5.00;;;2.60;91.90;;;;;;5027655;28;20064;-81
2024/01/12 09:10:29;;;;;;;14.75;5.53;;;2.60;91.90;;;;;;5020209;28;20038;-81
2024/01/12 09:12:54;;;;;;;13.73;4.40;;;2.60;92.00;;;;;;5027970;28;20048;-81
2024/01/12 09:15:20;;;;;;;20.17;5.63;;;2.60;92.00;;;;;;5024200;28;20052;-81
2024/01/12 09:17:46;;;;;;;13.67;4.33;;;2.60;92.00;;;;;;5003302;28;20057;-80
2024/01/12 09:20:11;;;;;;;20.47;5.57;;;2.60;92.00;;;;;;5027676;28;20034;-80
2024/01/12 09:22:37;;;;;;;16.52;5.45;;;2.70;92.10;;;;;;5027853;28;20132;-81
2024/01/12 09:25:03;;;;;;;15.80;4.50;;;2.60;92.10;;;;;;5007165;28;20134;-81
2024/01/12 09:27:29;;;;;;;15.00;4.53;;;2.60;92.10;;;;;;5024651;28;20117;-80
2024/01/12 09:29:54;;;;;;;14.00;4.77;;;2.60;92.10;;;;;;5023024;28;20064;-80
2024/01/12 09:32:20;;;;;;;21.27;4.73;;;2.70;92.20;;;;;;5023583;28;20049;-80
2024/01/12 09:34:45;;;;;;;11.63;4.00;;;2.70;92.20;;;;;;5033261;28;20048;-82
2024/01/12 09:37:11;;;;;;;19.30;4.93;;;2.70;92.20;;;;;;5017529;28;20069;-82
2024/01/12 09:39:37;;;;;;;17.88;4.25;;;2.70;92.30;;;;;;5037250;28;20046;-82
2024/01/12 09:42:08;;;;;;;15.23;3.67;;;2.70;92.30;;;;;;5019472;28;20042;-82
2024/01/12 09:44:37;;;;;;;14.43;4.17;;;2.80;92.40;;;;;;5008613;28;20420;-83
2024/01/12 09:47:04;;;;;;;12.87;4.43;;;2.80;92.40;;;;;;5016936;28;20045;-82
2024/01/12 09:49:31;;;;;;;16.77;4.10;;;2.80;92.40;;;;;;5011119;28;20148;-82
2024/01/12 09:52:04;;;;;;;15.65;3.67;;;2.90;92.50;;;;;;5032373;28;20041;-82
2024/01/12 09:54:30;;;;;;;17.90;4.20;;;2.90;92.50;;;;;;5012955;28;20093;-81
2024/01/12 09:56:58;;;;;;;16.10;4.40;;;3.00;92.60;;;;;;5009422;28;20066;-81
2024/01/12 09:59:25;;;;;;;15.93;3.85;;;3.00;92.60;;;;;;5029641;28;20044;-81
2024/01/12 10:01:51;;;;;;;19.80;4.43;;;3.10;92.60;;;;;;5015468;28;20038;-82
2024/01/12 10:04:17;;;;;;;9.95;3.58;;;3.10;92.60;;;;;;5021053;28;20033;-82
2024/01/12 10:06:42;;;;;;;16.40;3.78;;;3.20;92.70;;;;;;5047122;28;20049;-82
2024/01/12 10:09:09;;;;;;;13.13;3.97;;;3.30;92.70;;;;;;5034503;28;20034;-82
2024/01/12 10:11:35;;;;;;;12.55;3.13;;;3.30;92.70;;;;;;5020297;28;20034;-82
2024/01/12 10:14:00;;;;;;;17.10;3.50;;;3.40;92.70;;;;;;5030868;28;20101;-82
2024/01/12 10:16:29;;;;;;;17.77;3.97;;;3.40;92.70;;;;;;5021381;28;20041;-83
2024/01/12 10:18:59;;;;;;;20.92;3.67;;;3.40;92.70;;;;;;5016385;28;20041;-83
2024/01/12 10:21:25;;;;;;;14.50;3.15;;;3.50;92.70;;;;;;5025059;28;20069;-84
2024/01/12 10:24:07;;;;;;;15.52;3.80;;;3.50;92.70;;;;;;5023898;28;20083;-84
2024/01/12 10:26:33;;;;;;;18.23;4.55;;;3.60;92.70;;;;;;5027683;28;20132;-84
2024/01/12 10:29:03;;;;;;;18.63;3.47;;;3.60;92.70;;;;;;5021842;28;20053;-83
2024/01/12 10:31:29;;;;;;;13.02;3.03;;;3.70;92.70;;;;;;5028083;28;20048;-83
2024/01/12 10:33:58;;;;;;;15.25;3.20;;;3.70;92.70;;;;;;5025433;28;20473;-84
2024/01/12 10:36:27;;;;;;;14.57;3.00;;;3.80;92.70;;;;;;5010421;28;20045;-85
2024/01/12 10:38:56;;;;;;;13.13;3.13;;;4.30;92.80;;;;;;5006692;28;20113;-84
2024/01/12 10:41:24;;;;;;;20.00;3.50;;;3.90;92.70;;;;;;5024966;28;20416;-84
2024/01/12 10:43:52;;;;;;;16.70;3.30;;;3.90;92.70;;;;;;5027327;28;20044;-84
2024/01/12 10:46:43;;;;;;;20.98;3.65;;;4.00;92.60;;;;;;5007626;28;20038;-85
2024/01/12 10:49:20;;;;;;;16.67;3.10;;;4.00;92.60;;;;;;5004413;28;20042;-85
2024/01/12 10:52:12;;;;;;;18.55;3.45;;;4.00;92.60;;;;;;5017201;28;20109;-85
2024/01/12 10:54:51;;;;;;;11.73;2.72;;;4.10;92.60;;;;;;5003899;28;20041;-85
2024/01/12 10:57:17;;;;;;;14.63;3.25;;;4.10;92.60;;;;;;5020127;28;20045;-85
2024/01/12 10:59:44;;;;;;;17.98;3.72;;;4.10;92.50;;;;;;5006196;28;20116;-84
2024/01/12 11:02:12;;;;;;;20.38;3.88;;;4.20;92.50;;;;;;5023258;28;20087;-84
2024/01/12 11:04:40;;;;;;;14.50;3.15;;;4.40;92.60;;;;;;5010227;28;20037;-84
2024/01/12 11:07:06;;;;;;;19.58;3.80;;;4.40;92.50;;;;;;5022541;28;20046;-84
2024/01/12 11:09:32;;;;;;;15.60;3.40;;;4.30;92.50;;;;;;5030504;28;20037;-84
2024/01/12 11:12:03;;;;;;;18.13;3.35;;;4.30;92.60;;;;;;5008321;28;20034;-83
2024/01/12 11:14:31;;;;;;;13.07;2.92;;;4.40;92.50;;;;;;5010221;28;20042;-83
2024/01/12 11:16:57;;;;;;;14.27;2.95;;;4.40;92.40;;;;;;5012727;28;20037;-84
2024/01/12 11:19:25;;;;;;;15.68;2.78;;;4.40;92.40;;;;;;5005937;28;20045;-85
2024/01/12 11:22:08;;;;;;;18.30;3.60;;;4.50;92.40;;;;;;5021594;28;20026;-85
2024/01/12 11:24:43;;;;;;;16.33;3.20;;;4.50;92.50;;;;;;5023736;28;20030;-85
2024/01/12 11:27:12;;;;;;;14.43;2.85;;;4.50;92.40;;;;;;5010924;28;20038;-86
2024/01/12 11:29:41;;;;;;;18.67;3.17;;;4.60;92.40;;;;;;5024442;28;20036;-86
2024/01/12 11:32:07;;;;;;;21.02;4.30;;;4.60;92.40;;;;;;5013289;28;20100;-84
2024/01/12 11:34:34;;;;;;;9.73;2.47;;;4.60;92.40;;;;;;5031057;28;20053;-84
2024/01/12 11:37:00;;;;;;;16.95;3.15;;;4.60;92.40;;;;;;5013684;28;20064;-84
2024/01/12 11:39:37;;;;;;;18.42;3.58;;;5.00;92.50;;;;;;5017948;28;20064;-84
2024/01/12 11:42:05;;;;;;;13.48;3.53;;;4.70;92.40;;;;;;5011533;28;20469;-87
2024/01/12 11:44:33;;;;;;;15.27;3.10;;;4.70;92.40;;;;;;5018314;28;20532;-84
2024/01/12 11:47:00;;;;;;;15.05;3.90;;;5.00;92.60;;;;;;5024657;28;20037;-85
2024/01/12 11:49:26;;;;;;;12.95;2.80;;;4.70;92.50;;;;;;5023846;28;20505;-86
2024/01/12 11:52:04;;;;;;;13.13;3.90;;;4.80;92.50;;;;;;5023195;28;20052;-85
2024/01/12 11:54:30;;;;;;;11.98;2.83;;;4.80;92.60;;;;;;4997049;28;20046;-86
2024/01/12 11:56:56;;;;;;;14.52;3.33;;;4.80;92.60;;;;;;5026829;28;20083;-86
2024/01/12 11:59:22;;;;;;;14.05;3.60;;;4.80;92.60;;;;;;5021915;28;20101;-86
2024/01/12 12:01:47;;;;;;;17.58;3.33;;;4.80;92.60;;;;;;5021058;28;20037;-86
2024/01/12 12:04:17;;;;;;;17.58;4.03;;;4.90;92.60;;;;;;5004474;28;20041;-85
2024/01/12 12:06:47;;;;;;;16.88;3.50;;;5.00;92.70;;;;;;5021585;28;20048;-85
2024/01/12 12:09:13;;;;;;;15.70;4.05;;;4.90;92.60;;;;;;5007483;28;20034;-86
2024/01/12 12:11:39;;;;;;;16.67;3.33;;;4.90;92.60;;;;;;5007001;28;20385;-86
2024/01/12 12:14:05;;;;;;;22.23;3.92;;;4.90;92.60;;;;;;5002390;28;20044;-86
2024/01/12 12:16:32;;;;;;;16.25;3.10;;;4.90;92.50;;;;;;5022681;28;20045;-85
2024/01/12 12:18:58;;;;;;;22.38;4.43;;;4.90;92.50;;;;;;5014857;28;20044;-86
2024/01/12 12:21:24;;;;;;;24.58;4.63;;;4.90;92.50;;;;;;4993734;28;20405;-85
2024/01/12 12:23:49;;;;;;;26.33;3.97;;;5.00;92.50;;;;;;5004761;28;20088;-84
2024/01/12 12:26:16;;;;;;;14.02;2.95;;;5.00;92.60;;;;;;5015673;28;20029;-87
2024/01/12 12:28:44;;;;;;;15.27;2.63;;;5.20;92.60;;;;;;5020539;28;20064;-87
2024/01/12 12:31:10;;;;;;;10.90;3.70;;;5.60;92.70;;;;;;5009912;28;20505;-85
2024/01/12 12:33:36;;;;;;;9.30;2.70;;;5.00;92.60;;;;;;5010613;28;20132;-86
2024/01/12 12:36:04;;;;;;;14.70;2.50;;;5.00;92.60;;;;;;4995592;28;20476;-85
2024/01/12 12:38:29;;;;;;;13.85;2.97;;;5.00;92.60;;;;;;5016415;28;20477;-84
2024/01/12 12:40:55;;;;;;;19.38;3.92;;;5.00;92.60;;;;;;5008165;28;20037;-85
2024/01/12 12:43:22;;;;;;;14.70;3.10;;;5.00;92.60;;;;;;5012194;28;20037;-85